Pagina principale
METAR-TAF:

METAR-TAF

Aeroporti :

Aeroporto Internazionale di Gedda-Re Abd al-Aziz

Gedda, Arabia Saudita

latitudine: 21-42N, longitudine: 039-11E, altezza: 15 m

Osservazione

Il bollettino è stato emesso 23 minuti fa, alle 23:00 UTC
Vento 9 kt da nord/nord-est
Temperature 19°C
Umidità 43%
Pressione 1016 hPa
Visibilità 10 km o più
nessuna nube inferiore a 1500 m e nessun cumulonembo

METAR: OEJN 182300Z 02009KT CAVOK 19/06 Q1016 NOSIG

Ora: 02:23 (23:23 UTC)

Previsione

Il bollettino è stato emesso 6 ore e 23 minuti fa, alle 17:00 UTC
Previsione valida dal 18 alle 18 UTC al 19 alle 24 UTC
Vento 15 kt da nord
Visibilità 10 km o più
Nubi sparse ad un'altezza di 4000 ft

TAF: OEJN 181700Z 1818/1924 36015KT 9999 SCT040

Osservazioni e previsioni meteorologiche di più di 4000 aeroporti (messaggi METAR e TAF).

Le stazioni disponibili sono rappresentate dai dischi gialli e rossi sulla carta.

Puntare il mouse per vedere il nome della stazione.

Clicca sopra per visualizzare le osservazioni e previsioni meteorologiche.

Per cambiare la mappa : fare clic sui pulsanti verdi con una croce nera per ingrandire, il pulsante verde con un trattino per diminuire, o sulla freccia verde per le mappe adiacenti.


METAR-TAF: